Aérodrome :
LOGIN :

S'inscrire | Disclaimer

   EN    FR    IT 

 










Légende :    VFR   VFR Marginal   IFR   IFR Intensif   IFR Très Intensif
Visi : 
Plafond : 
>= 8 km
>= 3000ft
5 à 8 km
1000 à 3000 ft
1500m à 5 km
500 à 1000 ft
800 à 1500m
200 à 500 ft
< 800m
< 200 ft
Symboles :   Orages  Brouillard  Fortes neiges  Fortes précipitations  Vent > 20 kt
SIGMETs :   Divers  Orages  Givrage  Turbulence  Onde Orograph.  Cendres Volcan.







- Altitude de l'aérodrome : 122 ft
- Code IATA : TXL


EDDT - Berlin Tegel Int.

DERNIER METAR :
  • 180720Z 28004KT 9000 NSC 10/09 Q1020 NOSIG

METARs EXPIRÉS :
  • 180650Z 30001KT 9000 NSC 09/08 Q1020 NOSIG
  • 180620Z 25001KT 9000 3500W BCFG NSC 08/07 Q1020 NOSIG
  • 180550Z VRB02KT 9999 3000W BCFG NSC 07/06 Q1020 TEMPO 2000 BR
  • 180520Z VRB01KT 9999 BCFG NSC 06/06 Q1019 TEMPO 2000 BR

TAF TAF EDDT
Valide du 18 à 06h jusqu'au 19 à 06h UTC


180500Z 1806/1906 VRB02KT CAVOK
TEMPO 1806/1808 4000 BR
PROB30
TEMPO 1806/1808 0700 FG
BECMG 1808/1811 33005KT
BECMG 1810/1812 3500 BR BKN007
TEMPO 1812/1818 6000 BKN012
BECMG 1821/1824 SCT007
TEMPO 1900/1906 2500 BCFG
Pas de NOTAMs connus pour ce terrain.



MET'MAP, la Météo Aéronautique d'un coup d'oeil ! - Copyright ORBIFLY Décembre 2007 - Disclaimer

ORBIFLY MET'MAP TEAM :

Programmation & Développement : Alexandra Zaïnal
Conception & Développement : Baudouin d'Aumeries
Co-Programmation & Développement : Marc-Olivier Méhu
Soutien technique & logistique : Manuel Goepfert

Contact : metmap@orbifly.com




SOURCES & CREDITS :

   NOAA